createdAt,value
2018-05-14T00:00:09.694Z,15.20
2018-05-14T00:00:42.216Z,15.20
2018-05-14T00:01:15.537Z,15.20
2018-05-14T00:01:48.080Z,15.20
2018-05-14T00:02:20.612Z,15.20
2018-05-14T00:02:53.163Z,15.20
2018-05-14T00:03:25.707Z,15.20
2018-05-14T00:03:58.279Z,15.20
2018-05-14T00:04:30.924Z,15.20
2018-05-14T00:05:03.467Z,15.20
2018-05-14T00:05:36.016Z,15.20
2018-05-14T00:06:08.580Z,15.20
2018-05-14T00:06:41.131Z,15.20
2018-05-14T00:07:13.687Z,15.20
2018-05-14T00:07:46.207Z,15.20
2018-05-14T00:08:18.752Z,15.20
2018-05-14T00:08:51.299Z,15.20
2018-05-14T00:09:23.822Z,15.20
2018-05-14T00:09:56.372Z,15.20
2018-05-14T00:10:28.912Z,15.10
2018-05-14T00:11:01.463Z,15.10
2018-05-14T00:11:34.007Z,15.10
2018-05-14T00:12:06.559Z,15.20
2018-05-14T00:12:39.892Z,15.10
2018-05-14T00:13:12.453Z,15.10
2018-05-14T00:13:45.071Z,15.20
2018-05-14T00:14:17.629Z,15.10
2018-05-14T00:14:50.158Z,15.10
2018-05-14T00:15:25.589Z,15.20
2018-05-14T00:15:58.132Z,15.20
2018-05-14T00:16:30.684Z,15.10
2018-05-14T00:17:03.228Z,15.10
2018-05-14T00:17:35.776Z,15.10
2018-05-14T00:18:08.300Z,15.10
2018-05-14T00:18:40.839Z,15.10
2018-05-14T00:19:13.369Z,15.10
2018-05-14T00:19:45.924Z,15.10
2018-05-14T00:20:19.255Z,15.10
2018-05-14T00:20:51.806Z,15.10
2018-05-14T00:21:24.351Z,15.10
2018-05-14T00:21:56.899Z,15.10
2018-05-14T00:22:29.451Z,15.10
2018-05-14T00:23:01.977Z,15.10
2018-05-14T00:23:34.521Z,15.10
2018-05-14T00:24:07.044Z,15.10
2018-05-14T00:24:40.326Z,15.10
2018-05-14T00:25:12.847Z,15.10
2018-05-14T00:25:45.373Z,15.10
2018-05-14T00:26:17.953Z,15.10
2018-05-14T00:26:50.482Z,15.10
2018-05-14T00:27:23.004Z,15.10
2018-05-14T00:27:55.548Z,15.10
2018-05-14T00:28:28.118Z,15.10
2018-05-14T00:29:00.670Z,15.10
2018-05-14T00:29:33.209Z,15.20
2018-05-14T00:30:06.519Z,15.10
2018-05-14T00:30:39.063Z,15.20
2018-05-14T00:31:11.587Z,15.10
2018-05-14T00:31:44.162Z,15.10
2018-05-14T00:32:16.709Z,15.20
2018-05-14T00:32:49.260Z,15.10
2018-05-14T00:33:21.813Z,15.10
2018-05-14T00:33:54.361Z,15.10
2018-05-14T00:34:26.912Z,15.10
2018-05-14T00:34:59.459Z,15.10
2018-05-14T00:35:32.755Z,15.20
2018-05-14T00:36:05.298Z,15.20
2018-05-14T00:36:37.819Z,15.20
2018-05-14T00:37:10.369Z,15.20
2018-05-14T00:37:42.895Z,15.20
2018-05-14T00:38:15.438Z,15.20
2018-05-14T00:38:47.989Z,15.20
2018-05-14T00:39:20.577Z,15.20
2018-05-14T00:39:53.107Z,15.20
2018-05-14T00:40:25.636Z,15.20
2018-05-14T00:40:58.196Z,15.20
2018-05-14T00:41:30.707Z,15.20
2018-05-14T00:42:03.294Z,15.20
2018-05-14T00:42:35.856Z,15.20
2018-05-14T00:43:08.375Z,15.20
2018-05-14T00:43:40.923Z,15.20
2018-05-14T00:44:13.473Z,15.20
2018-05-14T00:44:46.032Z,15.20
2018-05-14T00:45:18.608Z,15.20
2018-05-14T00:45:51.836Z,15.10
2018-05-14T00:46:24.395Z,15.10
2018-05-14T00:47:34.232Z,15.20
2018-05-14T00:48:07.007Z,15.10
2018-05-14T00:48:39.536Z,15.10
2018-05-14T00:49:12.060Z,15.10
2018-05-14T00:49:44.592Z,15.10
2018-05-14T00:50:17.168Z,15.10
2018-05-14T00:50:50.486Z,15.20
2018-05-14T00:51:23.015Z,15.20
2018-05-14T00:51:55.571Z,15.20
2018-05-14T00:52:28.095Z,15.20
2018-05-14T00:53:00.659Z,15.20
2018-05-14T00:53:33.215Z,15.20
2018-05-14T00:54:05.788Z,15.20
2018-05-14T00:54:38.328Z,15.20
2018-05-14T00:55:16.775Z,15.20
2018-05-14T00:55:49.300Z,15.20
2018-05-14T00:56:21.843Z,15.20
2018-05-14T00:56:54.384Z,15.20
2018-05-14T00:57:27.681Z,15.30
2018-05-14T00:58:00.216Z,15.20
2018-05-14T00:58:32.788Z,15.30
2018-05-14T00:59:05.343Z,15.30
2018-05-14T00:59:38.638Z,15.30
2018-05-14T01:00:11.159Z,15.30
2018-05-14T01:00:43.715Z,15.30
2018-05-14T01:01:16.231Z,15.30
2018-05-14T01:01:48.763Z,15.30
2018-05-14T01:02:21.314Z,15.30
2018-05-14T01:02:53.845Z,15.30
2018-05-14T01:03:26.358Z,15.30
2018-05-14T01:03:58.900Z,15.30
2018-05-14T01:04:31.441Z,15.30
2018-05-14T01:05:03.965Z,15.30
2018-05-14T01:05:36.544Z,15.20
2018-05-14T01:06:09.133Z,15.20
2018-05-14T01:06:41.717Z,15.20
2018-05-14T01:07:14.271Z,15.20
2018-05-14T01:07:46.826Z,15.20
2018-05-14T01:08:19.355Z,15.20
2018-05-14T01:08:51.872Z,15.20
2018-05-14T01:09:24.392Z,15.20
2018-05-14T01:09:56.990Z,15.20
2018-05-14T01:10:29.556Z,15.20
2018-05-14T01:11:02.156Z,15.20
2018-05-14T01:11:34.680Z,15.20
2018-05-14T01:12:07.223Z,15.20
2018-05-14T01:12:39.781Z,15.20
2018-05-14T01:13:12.331Z,15.20
2018-05-14T01:13:44.883Z,15.20
2018-05-14T01:14:17.441Z,15.20
2018-05-14T01:14:49.988Z,15.20
2018-05-14T01:15:22.529Z,15.20
2018-05-14T01:15:55.055Z,15.20
2018-05-14T01:16:27.627Z,15.20
2018-05-14T01:17:00.155Z,15.20
2018-05-14T01:17:32.691Z,15.20
2018-05-14T01:18:05.247Z,15.20
2018-05-14T01:18:37.808Z,15.20
2018-05-14T01:19:10.394Z,15.20
2018-05-14T01:19:42.940Z,15.20
2018-05-14T01:20:15.498Z,15.20
2018-05-14T01:20:48.035Z,15.20
2018-05-14T01:21:20.555Z,15.20
2018-05-14T01:21:53.128Z,15.20
2018-05-14T01:22:25.652Z,15.20
2018-05-14T01:22:58.177Z,15.20
2018-05-14T01:23:30.699Z,15.20
2018-05-14T01:24:03.216Z,15.20
2018-05-14T01:24:35.731Z,15.20
2018-05-14T01:25:08.338Z,15.20
2018-05-14T01:25:40.860Z,15.20
2018-05-14T01:26:13.411Z,15.20
2018-05-14T01:26:45.977Z,15.20
2018-05-14T01:27:18.556Z,15.20
2018-05-14T01:27:51.998Z,15.20
2018-05-14T01:28:24.520Z,15.20
2018-05-14T01:28:57.072Z,15.20
2018-05-14T01:29:29.603Z,15.20
2018-05-14T01:30:02.142Z,15.30
2018-05-14T01:30:34.696Z,15.30
2018-05-14T01:31:07.244Z,15.30
2018-05-14T01:31:39.784Z,15.30
2018-05-14T01:32:13.111Z,15.30
2018-05-14T01:32:45.659Z,15.30
2018-05-14T01:33:18.183Z,15.30
2018-05-14T01:33:50.731Z,15.30
2018-05-14T01:34:23.266Z,15.30
2018-05-14T01:34:55.823Z,15.30
2018-05-14T01:35:28.364Z,15.30
2018-05-14T01:36:01.163Z,15.30
2018-05-14T01:36:33.703Z,15.30
2018-05-14T01:37:06.248Z,15.30
2018-05-14T01:37:38.806Z,15.30
2018-05-14T01:38:11.323Z,15.20
2018-05-14T01:38:43.852Z,15.30
2018-05-14T01:39:16.395Z,15.20
2018-05-14T01:39:48.923Z,15.20
2018-05-14T01:40:21.483Z,15.30
2018-05-14T01:40:54.034Z,15.30
2018-05-14T01:41:26.580Z,15.20
2018-05-14T01:41:59.126Z,15.30
2018-05-14T01:42:31.671Z,15.20
2018-05-14T01:43:05.005Z,15.30
2018-05-14T01:43:37.553Z,15.30
2018-05-14T01:44:10.095Z,15.30
2018-05-14T01:44:42.647Z,15.30
2018-05-14T01:45:15.187Z,15.30
2018-05-14T01:45:47.739Z,15.30
2018-05-14T01:46:20.342Z,15.30
2018-05-14T01:46:52.891Z,15.30
2018-05-14T01:47:25.455Z,15.30
2018-05-14T01:47:58.761Z,15.30
2018-05-14T01:48:31.276Z,15.20
2018-05-14T01:49:03.818Z,15.30
2018-05-14T01:49:36.338Z,15.30
2018-05-14T01:50:09.659Z,15.30
2018-05-14T01:50:42.199Z,15.30
2018-05-14T01:51:14.719Z,15.30
2018-05-14T01:51:47.267Z,15.30
2018-05-14T01:52:19.816Z,15.30
2018-05-14T01:52:52.349Z,15.30
2018-05-14T01:53:24.895Z,15.30
2018-05-14T01:53:58.210Z,15.30
2018-05-14T01:54:30.769Z,15.30
2018-05-14T01:55:03.296Z,15.30
2018-05-14T01:55:35.864Z,15.30
2018-05-14T01:56:08.386Z,15.30
2018-05-14T01:56:40.928Z,15.30
2018-05-14T01:57:13.450Z,15.30
2018-05-14T01:57:46.741Z,15.30
2018-05-14T01:58:19.277Z,15.30
2018-05-14T01:58:51.804Z,15.30
2018-05-14T01:59:24.331Z,15.30
2018-05-14T01:59:56.897Z,15.30
2018-05-14T02:00:29.428Z,15.30
2018-05-14T02:01:01.967Z,15.30
2018-05-14T02:01:34.505Z,15.30
2018-05-14T02:02:07.068Z,15.30
2018-05-14T02:02:39.595Z,15.30
2018-05-14T02:03:12.111Z,15.30
2018-05-14T02:03:44.655Z,15.40
2018-05-14T02:04:17.203Z,15.30
2018-05-14T02:04:49.754Z,15.30
2018-05-14T02:05:23.082Z,15.30
2018-05-14T02:05:55.667Z,15.30
2018-05-14T02:06:28.223Z,15.30
2018-05-14T02:07:00.749Z,15.30
2018-05-14T02:07:33.296Z,15.30
2018-05-14T02:08:05.852Z,15.30
2018-05-14T02:08:38.412Z,15.30
2018-05-14T02:09:10.958Z,15.30
2018-05-14T02:09:44.279Z,15.30
2018-05-14T02:10:16.842Z,15.30
2018-05-14T02:10:49.394Z,15.30
2018-05-14T02:11:21.940Z,15.30
2018-05-14T02:11:54.460Z,15.30
2018-05-14T02:12:27.263Z,15.30
2018-05-14T02:12:59.775Z,15.30
2018-05-14T02:13:32.329Z,15.30
2018-05-14T02:14:04.860Z,15.30
2018-05-14T02:14:37.395Z,15.30
2018-05-14T02:15:09.916Z,15.30
2018-05-14T02:15:42.435Z,15.30
2018-05-14T02:16:14.983Z,15.30
2018-05-14T02:16:47.535Z,15.30
2018-05-14T02:17:20.062Z,15.30
2018-05-14T02:17:52.588Z,15.30
2018-05-14T02:18:25.952Z,15.30
2018-05-14T02:18:58.475Z,15.30
2018-05-14T02:19:31.004Z,15.30
2018-05-14T02:20:03.531Z,15.30
2018-05-14T02:20:36.114Z,15.30
2018-05-14T02:21:08.677Z,15.30
2018-05-14T02:21:41.251Z,15.30
2018-05-14T02:22:13.827Z,15.30
2018-05-14T02:22:46.363Z,15.30
2018-05-14T02:23:18.915Z,15.30
2018-05-14T02:23:52.244Z,15.30
2018-05-14T02:24:24.767Z,15.30
2018-05-14T02:24:57.291Z,15.30
2018-05-14T02:25:29.819Z,15.30
2018-05-14T02:26:02.343Z,15.30
2018-05-14T02:26:34.893Z,15.30
2018-05-14T02:27:07.440Z,15.30
2018-05-14T02:27:39.983Z,15.30
2018-05-14T02:28:13.303Z,15.30
2018-05-14T02:28:45.856Z,15.30
2018-05-14T02:29:18.445Z,15.30
2018-05-14T02:29:52.663Z,15.30
2018-05-14T02:30:25.230Z,15.30
2018-05-14T02:30:57.767Z,15.30
2018-05-14T02:31:30.322Z,15.30
2018-05-14T02:32:02.917Z,15.30
2018-05-14T02:32:35.475Z,15.30
2018-05-14T02:33:08.082Z,15.30
2018-05-14T02:33:41.371Z,15.30
2018-05-14T02:34:13.900Z,15.30
2018-05-14T02:34:46.447Z,15.30
2018-05-14T02:35:18.999Z,15.30
2018-05-14T02:35:52.309Z,15.30
2018-05-14T02:36:24.832Z,15.30
2018-05-14T02:36:57.390Z,15.30
2018-05-14T02:37:29.944Z,15.30
2018-05-14T02:38:02.484Z,15.30
2018-05-14T02:38:35.044Z,15.30
2018-05-14T02:39:07.615Z,15.30
2018-05-14T02:39:40.151Z,15.30
2018-05-14T02:40:13.492Z,15.30
2018-05-14T02:40:46.573Z,15.30
2018-05-14T02:41:19.107Z,15.30
2018-05-14T02:41:51.965Z,15.30
2018-05-14T02:42:24.520Z,15.30
2018-05-14T02:42:57.211Z,15.40
2018-05-14T02:43:29.739Z,15.30
2018-05-14T02:44:02.283Z,15.30
2018-05-14T02:44:34.813Z,15.30
2018-05-14T02:45:07.395Z,15.30
2018-05-14T02:45:39.945Z,15.30
2018-05-14T02:46:12.502Z,15.30
2018-05-14T02:46:45.032Z,15.30
2018-05-14T02:47:17.591Z,15.30
2018-05-14T02:47:50.141Z,15.30
2018-05-14T02:48:22.683Z,15.30
2018-05-14T02:48:55.256Z,15.30
2018-05-14T02:49:27.807Z,15.30
2018-05-14T02:50:00.343Z,15.30
2018-05-14T02:50:32.886Z,15.30
2018-05-14T02:51:06.205Z,15.30
2018-05-14T02:51:38.737Z,15.30
2018-05-14T02:52:11.292Z,15.30
2018-05-14T02:52:43.820Z,15.30
2018-05-14T02:53:16.338Z,15.30
2018-05-14T02:53:48.883Z,15.30
2018-05-14T02:54:22.194Z,15.30
2018-05-14T02:54:54.756Z,15.30
2018-05-14T02:55:27.287Z,15.30
2018-05-14T02:55:59.816Z,15.30
2018-05-14T02:56:32.342Z,15.30
2018-05-14T02:57:04.892Z,15.30
2018-05-14T02:57:37.492Z,15.30
2018-05-14T02:58:10.007Z,15.30
2018-05-14T02:58:43.296Z,15.30
2018-05-14T02:59:15.844Z,15.20
2018-05-14T02:59:48.395Z,15.30
2018-05-14T03:00:20.920Z,15.30
2018-05-14T03:00:53.493Z,15.30
2018-05-14T03:01:26.095Z,15.30
2018-05-14T03:01:58.652Z,15.30
2018-05-14T03:02:31.199Z,15.20
2018-05-14T03:03:04.522Z,15.20
2018-05-14T03:03:37.048Z,15.20
2018-05-14T03:04:09.624Z,15.20
2018-05-14T03:04:42.180Z,15.20
2018-05-14T03:05:14.718Z,15.20
2018-05-14T03:05:47.243Z,15.20
2018-05-14T03:06:19.765Z,15.20
2018-05-14T03:06:52.314Z,15.20
2018-05-14T03:07:24.859Z,15.20
2018-05-14T03:07:57.384Z,15.20
2018-05-14T03:08:30.719Z,15.20
2018-05-14T03:09:03.304Z,15.20
2018-05-14T03:09:35.873Z,15.20
2018-05-14T03:10:08.423Z,15.20
2018-05-14T03:10:40.963Z,15.20
2018-05-14T03:11:13.486Z,15.20
2018-05-14T03:11:46.020Z,15.20
2018-05-14T03:12:18.548Z,15.20
2018-05-14T03:12:51.094Z,15.20
2018-05-14T03:13:23.635Z,15.20
2018-05-14T03:13:56.183Z,15.20
2018-05-14T03:14:29.494Z,15.20
2018-05-14T03:15:02.053Z,15.20
2018-05-14T03:15:34.589Z,15.20
2018-05-14T03:16:07.883Z,15.20
2018-05-14T03:16:40.431Z,15.20
2018-05-14T03:17:12.981Z,15.20
2018-05-14T03:17:45.527Z,15.20
2018-05-14T03:18:18.078Z,15.20
2018-05-14T03:18:50.620Z,15.20
2018-05-14T03:19:23.168Z,15.20
2018-05-14T03:19:55.716Z,15.20
2018-05-14T03:20:28.292Z,15.20
2018-05-14T03:21:00.839Z,15.30
2018-05-14T03:21:33.412Z,15.30
2018-05-14T03:22:05.935Z,15.30
2018-05-14T03:22:38.480Z,15.30
2018-05-14T03:23:11.030Z,15.30
2018-05-14T03:23:43.575Z,15.30
2018-05-14T03:24:16.118Z,15.30
2018-05-14T03:24:48.648Z,15.30
2018-05-14T03:25:21.163Z,15.30
2018-05-14T03:25:53.709Z,15.30
2018-05-14T03:26:26.231Z,15.40
2018-05-14T03:26:58.773Z,15.30
2018-05-14T03:27:31.291Z,15.40
2018-05-14T03:28:03.835Z,15.40
2018-05-14T03:28:36.385Z,15.40
2018-05-14T03:29:08.907Z,15.40
2018-05-14T03:29:41.432Z,15.40
2018-05-14T03:30:15.472Z,15.40
2018-05-14T03:30:48.023Z,15.40
2018-05-14T03:31:20.551Z,15.40
2018-05-14T03:31:53.090Z,15.40
2018-05-14T03:32:25.633Z,15.40
2018-05-14T03:32:58.179Z,15.40
2018-05-14T03:33:30.727Z,15.40
2018-05-14T03:34:04.014Z,15.40
2018-05-14T03:34:36.564Z,15.40
2018-05-14T03:35:09.103Z,15.50
2018-05-14T03:35:41.654Z,15.50
2018-05-14T03:36:14.217Z,15.50
2018-05-14T03:36:46.759Z,15.50
2018-05-14T03:37:19.335Z,15.50
2018-05-14T03:37:51.968Z,15.50
2018-05-14T03:38:25.260Z,15.50
2018-05-14T03:38:57.811Z,15.50
2018-05-14T03:39:30.354Z,15.50
2018-05-14T03:40:02.889Z,15.50
2018-05-14T03:40:35.427Z,15.50
2018-05-14T03:41:07.946Z,15.50
2018-05-14T03:41:41.262Z,15.50
2018-05-14T03:42:13.839Z,15.40
2018-05-14T03:42:46.370Z,15.50
2018-05-14T03:43:18.919Z,15.40
2018-05-14T03:43:52.166Z,15.40
2018-05-14T03:44:24.729Z,15.40
2018-05-14T03:44:57.257Z,15.40
2018-05-14T03:45:29.800Z,15.40
2018-05-14T03:46:02.351Z,15.50
2018-05-14T03:46:34.867Z,15.50
2018-05-14T03:47:07.408Z,15.50
2018-05-14T03:47:39.981Z,15.50
2018-05-14T03:48:12.556Z,15.40
2018-05-14T03:48:45.100Z,15.40
2018-05-14T03:49:17.617Z,15.50
2018-05-14T03:49:50.143Z,15.50
2018-05-14T03:50:22.691Z,15.50
2018-05-14T03:50:55.212Z,15.50
2018-05-14T03:51:27.756Z,15.50
2018-05-14T03:52:00.295Z,15.50
2018-05-14T03:52:32.831Z,15.50
2018-05-14T03:53:05.395Z,15.50
2018-05-14T03:53:37.943Z,15.50
2018-05-14T03:54:10.475Z,15.50
2018-05-14T03:54:43.005Z,15.50
2018-05-14T03:55:15.539Z,15.50
2018-05-14T03:55:48.848Z,15.50
2018-05-14T03:56:21.391Z,15.50
2018-05-14T03:56:53.943Z,15.50
2018-05-14T03:57:26.479Z,15.50
2018-05-14T03:57:59.019Z,15.50
2018-05-14T03:58:43.387Z,15.50
2018-05-14T03:59:27.719Z,15.50
2018-05-14T04:00:12.010Z,15.50
2018-05-14T04:00:56.206Z,15.50
2018-05-14T04:01:40.610Z,15.40
2018-05-14T04:02:25.069Z,15.40
2018-05-14T04:03:09.203Z,15.40
2018-05-14T04:03:53.819Z,15.30
2018-05-14T04:04:38.123Z,15.30
2018-05-14T04:05:19.474Z,15.30
2018-05-14T04:06:04.590Z,15.30
2018-05-14T04:06:37.138Z,15.30
2018-05-14T04:07:09.667Z,15.30
2018-05-14T04:07:42.191Z,15.30
2018-05-14T04:08:14.738Z,15.30
2018-05-14T04:08:47.296Z,15.30
2018-05-14T04:09:19.835Z,15.30
2018-05-14T04:09:52.387Z,15.30
2018-05-14T04:10:24.931Z,15.40
2018-05-14T04:10:57.454Z,15.40
2018-05-14T04:11:29.975Z,15.40
2018-05-14T04:12:03.287Z,15.40
2018-05-14T04:12:35.807Z,15.40
2018-05-14T04:13:08.328Z,15.40
2018-05-14T04:13:40.880Z,15.40
2018-05-14T04:14:13.445Z,15.40
2018-05-14T04:14:46.015Z,15.40
2018-05-14T04:15:18.536Z,15.40
2018-05-14T04:15:52.748Z,15.40
2018-05-14T04:16:25.284Z,15.40
2018-05-14T04:16:58.591Z,15.40
2018-05-14T04:17:31.133Z,15.40
2018-05-14T04:18:03.672Z,15.50
2018-05-14T04:18:36.231Z,15.50
2018-05-14T04:19:08.751Z,15.50
2018-05-14T04:19:41.312Z,15.50
2018-05-14T04:20:13.852Z,15.50
2018-05-14T04:20:46.568Z,15.50
2018-05-14T04:21:19.134Z,15.50
2018-05-14T04:21:52.171Z,15.50
2018-05-14T04:22:24.723Z,15.50
2018-05-14T04:22:57.244Z,15.50
2018-05-14T04:23:29.763Z,15.50
2018-05-14T04:24:02.287Z,15.50
2018-05-14T04:24:34.830Z,15.50
2018-05-14T04:25:07.402Z,15.50
2018-05-14T04:25:39.939Z,15.50
2018-05-14T04:26:12.492Z,15.50
2018-05-14T04:26:45.023Z,15.60
2018-05-14T04:27:17.548Z,15.50
2018-05-14T04:27:50.139Z,15.60
2018-05-14T04:28:59.476Z,15.50
2018-05-14T04:29:32.049Z,15.60
2018-05-14T04:30:04.595Z,15.50
2018-05-14T04:30:37.166Z,15.60
2018-05-14T04:31:09.691Z,15.60
2018-05-14T04:31:42.259Z,15.60
2018-05-14T04:32:14.788Z,15.60
2018-05-14T04:32:47.308Z,15.60
2018-05-14T04:33:19.827Z,15.60
2018-05-14T04:33:52.375Z,15.60
2018-05-14T04:34:24.903Z,15.60
2018-05-14T04:34:57.427Z,15.60
2018-05-14T04:35:29.975Z,15.60
2018-05-14T04:36:02.495Z,15.60
2018-05-14T04:36:35.076Z,15.60
2018-05-14T04:37:07.599Z,15.60
2018-05-14T04:37:40.155Z,15.60
2018-05-14T04:38:12.687Z,15.60
2018-05-14T04:38:45.235Z,15.70
2018-05-14T04:39:17.758Z,15.60
2018-05-14T04:39:50.336Z,15.70
2018-05-14T04:40:22.908Z,15.70
2018-05-14T04:40:56.224Z,15.70
2018-05-14T04:41:28.775Z,15.60
2018-05-14T04:42:01.333Z,15.60
2018-05-14T04:42:33.864Z,15.60
2018-05-14T04:43:06.397Z,15.60
2018-05-14T04:43:38.920Z,15.70
2018-05-14T04:44:12.214Z,15.70
2018-05-14T04:44:44.736Z,15.60
2018-05-14T04:45:17.288Z,15.60
2018-05-14T04:45:50.633Z,15.60
2018-05-14T04:46:23.190Z,15.60
2018-05-14T04:46:55.716Z,15.60
2018-05-14T04:47:28.264Z,15.70
2018-05-14T04:48:00.811Z,15.60
2018-05-14T04:48:33.343Z,15.60
2018-05-14T04:49:05.868Z,15.60
2018-05-14T04:49:38.403Z,15.60
2018-05-14T04:50:10.934Z,15.60
2018-05-14T04:50:43.459Z,15.60
2018-05-14T04:51:16.764Z,15.60
2018-05-14T04:51:49.311Z,15.60
2018-05-14T04:52:21.835Z,15.60
2018-05-14T04:52:54.353Z,15.60
2018-05-14T04:53:26.887Z,15.60
2018-05-14T04:54:00.192Z,15.60
2018-05-14T04:54:32.739Z,15.60
2018-05-14T04:55:06.060Z,15.60
2018-05-14T04:55:38.612Z,15.60
2018-05-14T04:56:11.183Z,15.60
2018-05-14T04:56:43.709Z,15.60
2018-05-14T04:57:16.261Z,15.60
2018-05-14T04:57:48.823Z,15.60
2018-05-14T04:58:21.367Z,15.60
2018-05-14T04:58:53.919Z,15.60
2018-05-14T04:59:26.466Z,15.60
2018-05-14T04:59:58.987Z,15.60
2018-05-14T05:00:31.540Z,15.60
2018-05-14T05:01:04.080Z,15.60
2018-05-14T05:01:36.629Z,15.60
2018-05-14T05:02:09.200Z,15.60
2018-05-14T05:02:41.750Z,15.60
2018-05-14T05:03:14.292Z,15.60
2018-05-14T05:03:46.843Z,15.70
2018-05-14T05:04:20.134Z,15.70
2018-05-14T05:04:52.846Z,15.70
2018-05-14T05:05:25.368Z,15.70
2018-05-14T05:05:57.912Z,15.70
2018-05-14T05:06:30.475Z,15.70
2018-05-14T05:07:03.043Z,15.70
2018-05-14T05:07:35.574Z,15.70
2018-05-14T05:08:08.139Z,15.70
2018-05-14T05:08:40.669Z,15.70
2018-05-14T05:09:13.210Z,15.70
2018-05-14T05:09:45.738Z,15.70
2018-05-14T05:10:18.338Z,15.70
2018-05-14T05:10:50.808Z,15.70
2018-05-14T05:11:23.367Z,15.70
2018-05-14T05:11:55.911Z,15.70
2018-05-14T05:12:29.207Z,15.80
2018-05-14T05:13:01.750Z,15.70
2018-05-14T05:13:34.313Z,15.80
2018-05-14T05:14:06.883Z,15.80
2018-05-14T05:14:39.438Z,15.80
2018-05-14T05:15:11.973Z,15.70
2018-05-14T05:15:44.524Z,15.70
2018-05-14T05:16:17.043Z,15.70
2018-05-14T05:16:49.617Z,15.70
2018-05-14T05:17:22.167Z,15.70
2018-05-14T05:17:54.715Z,15.70
2018-05-14T05:18:28.007Z,15.70
2018-05-14T05:19:00.532Z,15.70
2018-05-14T05:19:33.857Z,15.70
2018-05-14T05:20:06.392Z,15.70
2018-05-14T05:20:38.924Z,15.70
2018-05-14T05:21:11.486Z,15.70
2018-05-14T05:21:44.027Z,15.70
2018-05-14T05:22:16.576Z,15.70
2018-05-14T05:22:49.138Z,15.70
2018-05-14T05:23:21.684Z,15.70
2018-05-14T05:23:54.242Z,15.80
2018-05-14T05:24:26.763Z,15.80
2018-05-14T05:24:59.307Z,15.80
2018-05-14T05:25:31.837Z,15.80
2018-05-14T05:26:05.227Z,15.80
2018-05-14T05:26:37.791Z,15.80
2018-05-14T05:27:10.335Z,15.80
2018-05-14T05:27:42.858Z,15.80
2018-05-14T05:28:15.409Z,15.70
2018-05-14T05:28:47.935Z,15.70
2018-05-14T05:29:20.463Z,15.70
2018-05-14T05:29:52.991Z,15.70
2018-05-14T05:30:25.548Z,15.70
2018-05-14T05:30:58.075Z,15.70
2018-05-14T05:31:30.632Z,15.70
2018-05-14T05:32:03.218Z,15.70
2018-05-14T05:32:36.526Z,15.70
2018-05-14T05:33:09.043Z,15.70
2018-05-14T05:33:41.591Z,15.70
2018-05-14T05:34:14.135Z,15.70
2018-05-14T05:34:46.683Z,15.70
2018-05-14T05:35:19.223Z,15.70
2018-05-14T05:35:52.286Z,15.70
2018-05-14T05:36:24.839Z,15.70
2018-05-14T05:36:57.387Z,15.70
2018-05-14T05:37:29.964Z,15.70
2018-05-14T05:38:02.563Z,15.70
2018-05-14T05:38:35.070Z,15.80
2018-05-14T05:39:07.603Z,15.80
2018-05-14T05:39:40.163Z,15.80
2018-05-14T05:40:12.714Z,15.80
2018-05-14T05:40:45.239Z,15.80
2018-05-14T05:41:17.776Z,15.80
2018-05-14T05:41:50.299Z,15.80
2018-05-14T05:42:22.847Z,15.80
2018-05-14T05:42:56.161Z,15.80
2018-05-14T05:43:28.713Z,15.80
2018-05-14T05:44:01.246Z,15.80
2018-05-14T05:44:33.772Z,15.80
2018-05-14T05:45:06.314Z,15.80
2018-05-14T05:45:38.863Z,15.80
2018-05-14T05:46:11.404Z,15.80
2018-05-14T05:46:44.706Z,15.80
2018-05-14T05:47:17.249Z,15.80
2018-05-14T05:47:49.794Z,15.80
2018-05-14T05:48:23.079Z,15.90
2018-05-14T05:48:55.642Z,15.90
2018-05-14T05:49:28.195Z,15.90
2018-05-14T05:50:00.767Z,15.90
2018-05-14T05:50:33.318Z,15.90
2018-05-14T05:51:05.872Z,15.90
2018-05-14T05:51:38.459Z,15.90
2018-05-14T05:52:11.052Z,16.00
2018-05-14T05:52:43.579Z,15.90
2018-05-14T05:53:16.127Z,15.90
2018-05-14T05:53:48.657Z,16.00
2018-05-14T05:54:21.213Z,16.00
2018-05-14T05:54:53.787Z,16.00
2018-05-14T05:55:26.335Z,16.00
2018-05-14T05:55:58.890Z,16.00
2018-05-14T05:56:31.403Z,16.00
2018-05-14T05:57:03.933Z,16.00
2018-05-14T05:57:36.484Z,16.00
2018-05-14T05:58:09.043Z,16.00
2018-05-14T05:58:42.366Z,16.00
2018-05-14T05:59:14.919Z,16.00
2018-05-14T05:59:47.471Z,16.00
2018-05-14T06:00:20.046Z,16.00
2018-05-14T06:00:52.577Z,16.00
2018-05-14T06:01:25.896Z,15.90
2018-05-14T06:01:58.421Z,15.90
2018-05-14T06:02:30.990Z,15.90
2018-05-14T06:03:04.243Z,15.90
2018-05-14T06:03:36.771Z,16.00
2018-05-14T06:04:09.327Z,15.90
2018-05-14T06:04:41.851Z,16.00
2018-05-14T06:05:14.405Z,15.90
2018-05-14T06:05:46.955Z,15.90
2018-05-14T06:06:19.507Z,15.90
2018-05-14T06:06:52.055Z,15.90
2018-05-14T06:07:24.576Z,16.00
2018-05-14T06:07:57.097Z,16.00
2018-05-14T06:08:29.619Z,16.00
2018-05-14T06:09:02.156Z,16.00
2018-05-14T06:09:35.001Z,16.00
2018-05-14T06:10:07.543Z,16.00
2018-05-14T06:10:40.095Z,16.00
2018-05-14T06:11:12.645Z,15.90
2018-05-14T06:11:45.176Z,16.00
2018-05-14T06:12:17.727Z,16.00
2018-05-14T06:12:50.282Z,16.00
2018-05-14T06:13:22.828Z,16.00
2018-05-14T06:13:55.382Z,16.00
2018-05-14T06:14:27.947Z,16.00
2018-05-14T06:15:00.477Z,16.00
2018-05-14T06:15:33.096Z,16.00
2018-05-14T06:16:05.545Z,16.00
2018-05-14T06:16:38.088Z,16.00
2018-05-14T06:17:10.609Z,16.00
2018-05-14T06:17:43.180Z,16.00
2018-05-14T06:18:15.731Z,16.00
2018-05-14T06:18:48.263Z,16.00
2018-05-14T06:19:20.812Z,16.00
2018-05-14T06:19:53.380Z,16.00
2018-05-14T06:20:25.931Z,16.00
2018-05-14T06:20:58.487Z,16.00
2018-05-14T06:21:31.043Z,16.10
2018-05-14T06:22:03.591Z,16.10
2018-05-14T06:22:36.163Z,16.10
2018-05-14T06:23:08.695Z,16.10
2018-05-14T06:23:41.239Z,16.10
2018-05-14T06:24:13.774Z,16.10
2018-05-14T06:24:46.369Z,16.10
2018-05-14T06:25:18.980Z,16.10
2018-05-14T06:25:52.196Z,16.10
2018-05-14T06:26:24.747Z,16.10
2018-05-14T06:26:57.281Z,16.10
2018-05-14T06:27:29.826Z,16.10
2018-05-14T06:28:02.371Z,16.20
2018-05-14T06:28:34.936Z,16.20
2018-05-14T06:29:07.465Z,16.20
2018-05-14T06:29:40.014Z,16.20
2018-05-14T06:30:12.558Z,16.20
2018-05-14T06:30:45.141Z,16.20
2018-05-14T06:31:17.674Z,16.20
2018-05-14T06:31:50.220Z,16.20
2018-05-14T06:32:22.781Z,16.20
2018-05-14T06:32:55.343Z,16.30
2018-05-14T06:33:27.886Z,16.20
2018-05-14T06:34:00.426Z,16.30
2018-05-14T06:34:33.088Z,16.30
2018-05-14T06:35:05.615Z,16.30
2018-05-14T06:35:38.269Z,16.30
2018-05-14T06:36:10.771Z,16.30
2018-05-14T06:36:43.325Z,16.30
2018-05-14T06:37:15.884Z,16.30
2018-05-14T06:37:48.411Z,16.40
2018-05-14T06:38:20.966Z,16.40
2018-05-14T06:38:53.498Z,16.40
2018-05-14T06:39:26.051Z,16.40
2018-05-14T06:39:59.374Z,16.40
2018-05-14T06:40:31.917Z,16.40
2018-05-14T06:41:04.475Z,16.40
2018-05-14T06:41:37.067Z,16.40
2018-05-14T06:42:09.594Z,16.50
2018-05-14T06:42:42.166Z,16.50
2018-05-14T06:43:14.719Z,16.50
2018-05-14T06:43:47.251Z,16.50
2018-05-14T06:44:19.813Z,16.50
2018-05-14T06:44:52.325Z,16.50
2018-05-14T06:45:24.899Z,16.50
2018-05-14T06:45:57.437Z,16.50
2018-05-14T06:46:29.992Z,16.50
2018-05-14T06:47:02.533Z,16.50
2018-05-14T06:47:35.056Z,16.50
2018-05-14T06:48:07.595Z,16.50
2018-05-14T06:48:40.116Z,16.50
2018-05-14T06:49:12.643Z,16.50
2018-05-14T06:49:45.196Z,16.50
2018-05-14T06:50:17.894Z,16.50
2018-05-14T06:50:50.316Z,16.50
2018-05-14T06:51:22.868Z,16.50
2018-05-14T06:51:55.411Z,16.50
2018-05-14T06:52:27.951Z,16.50
2018-05-14T06:53:00.491Z,16.50
2018-05-14T06:53:33.114Z,16.50
2018-05-14T06:54:05.638Z,16.50
2018-05-14T06:54:38.163Z,16.50
2018-05-14T06:55:10.801Z,16.60
2018-05-14T06:55:43.251Z,16.60
2018-05-14T06:56:16.551Z,16.60
2018-05-14T06:56:49.075Z,16.60
2018-05-14T06:57:21.599Z,16.60
2018-05-14T06:57:54.141Z,16.60
2018-05-14T06:58:26.686Z,16.60
2018-05-14T06:58:59.495Z,16.60
2018-05-14T06:59:32.055Z,16.60
2018-05-14T07:00:04.593Z,16.70
2018-05-14T07:00:37.142Z,16.70
2018-05-14T07:01:09.694Z,16.70
2018-05-14T07:01:42.235Z,16.80
2018-05-14T07:02:14.810Z,16.80
2018-05-14T07:02:47.374Z,16.80
2018-05-14T07:03:19.935Z,16.90